Time;durP1;ratioP1;P1;durP2;ratioP2;P2;SDS_P1;SDS_P2;PMS_P1;PMS_P2;Temp;Humidity;BMP_temperature;BMP_pressure;BME280_temperature;BME280_humidity;BME280_pressure;Samples;Min_cycle;Max_cycle;Signal;HPM_P1;HPM_P2
2022/10/15 00:00:39;;;;;;;41.63;34.47;;;;;;;11.05;100.00;100625.47;5031237;28;20330;-88
2022/10/15 00:03:04;;;;;;;42.80;35.20;;;;;;;11.05;100.00;100625.47;5031656;28;20376;-86
2022/10/15 00:05:30;;;;;;;46.37;37.87;;;;;;;11.14;100.00;100620.63;5007647;28;20037;-86
2022/10/15 00:07:55;;;;;;;47.90;38.60;;;;;;;11.14;100.00;100623.34;5031637;28;20041;-86
2022/10/15 00:10:21;;;;;;;47.87;38.77;;;;;;;11.20;100.00;100633.28;5032220;28;20072;-87
2022/10/15 00:12:47;;;;;;;46.63;38.43;;;;;;;11.20;100.00;100635.19;5031489;28;21680;-87
2022/10/15 00:15:12;;;;;;;47.07;39.60;;;;;;;11.22;100.00;100630.34;5032372;28;20465;-87
2022/10/15 00:17:37;;;;;;;49.17;40.37;;;;;;;11.24;100.00;100634.50;5007216;28;20693;-88
2022/10/15 00:20:05;;;;;;;45.67;38.93;;;;;;;11.26;100.00;100635.13;5027872;28;20048;-89
2022/10/15 00:22:31;;;;;;;49.80;40.13;;;;;;;11.26;100.00;100627.00;5030247;28;20029;-88
2022/10/15 00:24:56;;;;;;;50.63;41.63;;;;;;;11.28;100.00;100627.59;5031788;28;20396;-87
2022/10/15 00:27:21;;;;;;;47.33;39.57;;;;;;;11.22;100.00;100617.63;5031645;28;20052;-87
2022/10/15 00:29:47;;;;;;;49.77;40.60;;;;;;;11.27;100.00;100634.09;5031788;28;20045;-87
2022/10/15 00:32:13;;;;;;;51.47;41.07;;;;;;;11.25;100.00;100636.16;5006828;28;20113;-87
2022/10/15 00:34:38;;;;;;;53.17;42.03;;;;;;;11.24;100.00;100631.78;5031373;28;20063;-87
2022/10/15 00:37:04;;;;;;;54.33;43.83;;;;;;;11.28;100.00;100635.72;5006534;28;20048;-89
2022/10/15 00:39:29;;;;;;;59.63;45.77;;;;;;;11.30;100.00;100633.63;5031647;28;20037;-87
2022/10/15 00:41:54;;;;;;;54.97;44.77;;;;;;;11.32;100.00;100636.94;5005472;28;20801;-86
2022/10/15 00:44:20;;;;;;;58.37;45.77;;;;;;;11.30;100.00;100633.63;5006011;28;20045;-86
2022/10/15 00:46:48;;;;;;;59.13;45.90;;;;;;;11.26;100.00;100635.13;5029268;28;20033;-87
2022/10/15 00:49:21;;;;;;;61.43;46.27;;;;;;;11.31;100.00;100635.28;5028763;28;20028;-88
2022/10/15 00:51:54;;;;;;;64.87;47.70;;;;;;;11.29;100.00;100631.97;5031022;28;21516;-87
2022/10/15 00:54:20;;;;;;;62.13;47.88;;;;;;;11.38;100.00;100642.53;5031586;28;20075;-86
2022/10/15 00:56:48;;;;;;;63.53;48.60;;;;;;;11.39;100.00;100639.59;5031400;28;20168;-88
2022/10/15 00:59:17;;;;;;;65.47;48.47;;;;;;;11.32;100.00;100625.28;5012487;28;20496;-88
2022/10/15 01:01:43;;;;;;;65.10;48.40;;;;;;;11.41;100.00;100628.50;5030570;28;20151;-87
2022/10/15 01:04:09;;;;;;;64.70;48.43;;;;;;;11.42;100.00;100631.03;5029693;28;20920;-87
2022/10/15 01:06:35;;;;;;;63.63;47.50;;;;;;;11.45;100.00;100627.88;5030362;28;20040;-87
2022/10/15 01:09:01;;;;;;;60.93;46.53;;;;;;;11.46;100.00;100628.69;5028985;28;20481;-87
2022/10/15 01:11:39;;;;;;;54.90;43.67;;;;;;;11.49;100.00;100630.94;5030439;28;20068;-87
2022/10/15 01:14:32;;;;;;;53.97;42.77;;;;;;;11.55;100.00;100640.91;5029214;28;20120;-86
2022/10/15 01:17:07;;;;;;;51.43;41.27;;;;;;;11.54;100.00;100628.41;5029993;28;20037;-87
2022/10/15 01:19:32;;;;;;;;;;;;;;;11.62;100.00;100614.53;5021895;28;20115;-86
2022/10/15 01:22:08;;;;;;;51.60;42.40;;;;;;;11.57;100.00;100617.13;5021620;28;19991;-86
2022/10/15 01:24:44;;;;;;;54.70;43.77;;;;;;;11.58;100.00;100613.31;5030315;28;20037;-88
2022/10/15 01:27:25;;;;;;;54.80;44.13;;;;;;;11.63;100.00;100609.97;5030786;28;20469;-86
2022/10/15 01:30:11;;;;;;;52.93;43.17;;;;;;;11.53;100.00;100587.91;5029587;28;20053;-88
2022/10/15 01:33:03;;;;;;;50.13;41.87;;;;;;;11.61;100.00;100599.34;5029744;28;20157;-87
2022/10/15 01:35:50;;;;;;;49.13;42.50;;;;;;;11.61;100.00;100593.91;5003824;28;20045;-87
2022/10/15 01:38:50;;;;;;;48.07;39.63;;;;;;;11.65;100.00;100588.84;5021849;28;20039;-87
2022/10/15 01:41:40;;;;;;;49.50;41.37;;;;;;;11.64;100.00;100593.44;5029732;28;20482;-87
2022/10/15 01:44:17;;;;;;;47.37;41.37;;;;;;;11.62;100.00;100586.59;5029329;28;21444;-87
2022/10/15 01:46:53;;;;;;;47.40;41.67;;;;;;;11.66;100.00;100599.47;5020918;28;20084;-88
2022/10/15 01:49:25;;;;;;;47.77;40.73;;;;;;;11.63;100.00;100597.22;5029817;28;20800;-87
2022/10/15 01:51:53;;;;;;;49.53;42.07;;;;;;;11.70;100.00;100604.47;5029182;28;20452;-86
2022/10/15 01:54:20;;;;;;;45.90;39.97;;;;;;;11.73;100.00;100610.25;5012521;28;20423;-88
2022/10/15 01:56:50;;;;;;;45.77;40.77;;;;;;;11.66;100.00;100590.50;5030043;28;20354;-86
2022/10/15 01:59:20;;;;;;;42.70;38.03;;;;;;;11.76;100.00;100598.13;5029639;28;20414;-88
2022/10/15 02:01:46;;;;;;;41.30;36.90;;;;;;;11.76;100.00;100598.97;5030350;28;20446;-87
2022/10/15 02:04:26;;;;;;;42.60;37.93;;;;;;;11.78;100.00;100585.97;5029474;28;20045;-87
2022/10/15 02:07:04;;;;;;;43.13;36.90;;;;;;;11.81;100.00;100590.13;5004713;28;20037;-87
2022/10/15 02:10:03;;;;;;;42.97;37.70;;;;;;;11.81;100.00;100582.00;5022030;28;20041;-88
2022/10/15 02:13:03;;;;;;;41.40;36.90;;;;;;;11.83;100.00;100578.00;5020510;28;20553;-88
2022/10/15 02:16:03;;;;;;;40.40;36.10;;;;;;;11.84;100.00;100581.53;5030065;28;20040;-87
2022/10/15 02:18:29;;;;;;;41.90;37.17;;;;;;;11.85;100.00;100575.03;4985529;28;20156;-88
2022/10/15 02:20:56;;;;;;;43.10;38.53;;;;;;;11.85;100.00;100572.34;5019309;28;20130;-88
2022/10/15 02:23:52;;;;;;;40.63;36.30;;;;;;;11.85;100.00;100572.34;5030471;28;20462;-87
2022/10/15 02:26:19;;;;;;;42.47;37.87;;;;;;;11.86;100.00;100565.84;5028855;28;20467;-89
2022/10/15 02:28:51;;;;;;;42.20;37.57;;;;;;;11.85;100.00;100557.94;5020680;28;20040;-88
2022/10/15 02:31:19;;;;;;;41.87;37.47;;;;;;;11.86;100.00;100568.56;5029952;28;20552;-87
2022/10/15 02:33:46;;;;;;;42.30;35.97;;;;;;;11.89;100.00;100565.38;5029242;28;20388;-88
2022/10/15 02:36:12;;;;;;;41.03;36.63;;;;;;;11.88;100.00;100563.72;5030064;28;20033;-88
2022/10/15 02:38:41;;;;;;;41.20;36.77;;;;;;;11.88;100.00;100560.19;5027909;28;20040;-88
2022/10/15 02:41:08;;;;;;;40.80;36.50;;;;;;;11.81;100.00;100550.22;5022268;28;20036;-88
2022/10/15 02:43:34;;;;;;;42.90;37.10;;;;;;;11.84;100.00;100543.53;5027569;28;20178;-88
2022/10/15 02:46:00;;;;;;;40.17;36.03;;;;;;;11.84;100.00;100543.53;5034172;28;20077;-87
2022/10/15 02:48:25;;;;;;;39.97;35.77;;;;;;;11.82;100.00;100540.22;5008026;28;20116;-88
2022/10/15 02:50:51;;;;;;;41.30;36.80;;;;;;;11.83;100.00;100540.00;5007818;28;20155;-88
2022/10/15 02:53:16;;;;;;;41.97;37.50;;;;;;;11.88;100.00;100539.28;5007582;28;20037;-87
2022/10/15 02:55:41;;;;;;;39.27;34.87;;;;;;;11.88;100.00;100536.56;5033249;28;20796;-88
2022/10/15 02:58:07;;;;;;;41.20;36.70;;;;;;;11.82;100.00;100523.94;5031000;28;20408;-87
2022/10/15 03:00:32;;;;;;;40.23;35.93;;;;;;;11.83;100.00;100521.00;5032951;28;21756;-87
2022/10/15 03:02:57;;;;;;;41.10;36.63;;;;;;;11.86;100.00;100511.56;5008672;28;20037;-85
2022/10/15 03:05:23;;;;;;;38.97;34.87;;;;;;;11.76;100.00;100500.41;5033472;28;20067;-85
2022/10/15 03:07:48;;;;;;;38.43;34.43;;;;;;;11.89;100.00;100518.44;4990799;28;20038;-87
2022/10/15 03:10:14;;;;;;;40.13;35.53;;;;;;;11.87;100.00;100513.22;5032284;28;20032;-88
2022/10/15 03:12:39;;;;;;;39.70;35.43;;;;;;;11.82;100.00;100508.47;5029969;28;20036;-87
2022/10/15 03:15:05;;;;;;;41.00;36.53;;;;;;;11.91;100.00;100514.44;5008643;28;21981;-89
2022/10/15 03:17:31;;;;;;;41.43;37.13;;;;;;;11.94;100.00;100519.41;5023955;28;20446;-88
2022/10/15 03:19:56;;;;;;;41.80;37.40;;;;;;;11.91;100.00;100503.56;5032498;28;20166;-87
2022/10/15 03:22:21;;;;;;;40.17;35.97;;;;;;;11.91;100.00;100510.88;5007582;28;21209;-88
2022/10/15 03:24:47;;;;;;;40.63;36.33;;;;;;;11.91;100.00;100514.44;5032301;28;20545;-86
2022/10/15 03:27:12;;;;;;;39.20;35.13;;;;;;;11.93;100.00;100523.16;5033385;28;20107;-87
2022/10/15 03:29:37;;;;;;;40.63;36.27;;;;;;;11.96;100.00;100521.91;5006750;28;21357;-87
2022/10/15 03:32:03;;;;;;;41.37;36.93;;;;;;;11.95;100.00;100523.81;5032683;28;20041;-87
2022/10/15 03:34:28;;;;;;;40.93;36.57;;;;;;;11.95;100.00;100517.53;5032949;28;20041;-87
2022/10/15 03:36:54;;;;;;;42.90;38.40;;;;;;;11.92;100.00;100515.25;5031972;28;20041;-87
2022/10/15 03:39:19;;;;;;;43.67;38.87;;;;;;;11.98;100.00;100527.91;5031740;28;20164;-87
2022/10/15 03:41:44;;;;;;;42.93;37.10;;;;;;;11.96;100.00;100522.72;5032450;28;20053;-87
2022/10/15 03:44:10;;;;;;;42.43;37.97;;;;;;;11.97;100.00;100518.13;5031965;28;20049;-87
2022/10/15 03:46:35;;;;;;;40.70;36.40;;;;;;;11.98;100.00;100515.19;5032496;28;20903;-87
2022/10/15 03:49:01;;;;;;;42.03;37.53;;;;;;;11.98;100.00;100508.91;5006305;28;20029;-87
2022/10/15 03:51:26;;;;;;;41.67;37.17;;;;;;;11.94;100.00;100495.00;5032425;28;20049;-87
2022/10/15 03:53:52;;;;;;;42.27;35.87;;;;;;;12.02;100.00;100503.88;5006211;28;20040;-88
2022/10/15 03:56:18;;;;;;;41.53;37.07;;;;;;;11.96;100.00;100495.56;5031644;28;20039;-87
2022/10/15 03:58:43;;;;;;;42.10;37.70;;;;;;;11.96;100.00;100490.13;5031361;28;20669;-87
2022/10/15 04:01:14;;;;;;;42.13;37.53;;;;;;;11.98;100.00;100485.31;5006598;28;20819;-87
2022/10/15 04:03:40;;;;;;;40.63;36.33;;;;;;;12.05;100.00;100495.25;5031274;28;20037;-87
2022/10/15 04:06:06;;;;;;;40.97;36.60;;;;;;;12.08;100.00;100502.94;5032118;28;20060;-87
2022/10/15 04:08:32;;;;;;;41.50;36.00;;;;;;;12.07;100.00;100491.25;5030774;28;20033;-88
2022/10/15 04:10:58;;;;;;;40.73;36.23;;;;;;;12.09;100.00;100488.28;5030138;28;20072;-89
2022/10/15 04:13:25;;;;;;;40.70;36.07;;;;;;;12.09;100.00;100499.16;5022992;28;20029;-88
2022/10/15 04:15:50;;;;;;;41.53;34.60;;;;;;;12.07;100.00;100496.69;5009131;28;20068;-88
2022/10/15 04:18:16;;;;;;;40.53;34.13;;;;;;;12.11;100.00;100499.78;5031663;28;20163;-89
2022/10/15 04:20:41;;;;;;;38.40;33.67;;;;;;;12.08;100.00;100511.09;5006277;28;20128;-89
2022/10/15 04:23:07;;;;;;;40.47;35.43;;;;;;;12.06;100.00;100516.75;5031640;28;20045;-88
2022/10/15 04:25:33;;;;;;;39.30;34.87;;;;;;;12.03;100.00;100510.97;5023612;28;20191;-88
2022/10/15 04:27:58;;;;;;;39.93;34.43;;;;;;;12.05;100.00;100519.69;5022891;28;20055;-89
2022/10/15 04:30:23;;;;;;;43.93;36.53;;;;;;;12.05;100.00;100519.69;5030261;28;20053;-88
2022/10/15 04:32:52;;;;;;;42.80;36.23;;;;;;;12.04;100.00;100512.63;5030527;28;20529;-88
2022/10/15 04:35:17;;;;;;;44.43;36.43;;;;;;;12.01;100.00;100515.78;5031553;28;20049;-89
2022/10/15 04:37:43;;;;;;;42.77;36.23;;;;;;;12.08;100.00;100522.78;5029972;28;20412;-88
2022/10/15 04:40:09;;;;;;;42.60;35.70;;;;;;;12.14;100.00;100510.16;5022474;28;20041;-88
2022/10/15 04:42:34;;;;;;;44.60;37.03;;;;;;;12.15;100.00;100511.81;4978352;28;20417;-86
2022/10/15 04:45:00;;;;;;;44.87;36.90;;;;;;;12.11;100.00;100502.50;5031735;28;20041;-89
2022/10/15 04:47:25;;;;;;;50.67;38.80;;;;;;;12.16;100.00;100510.78;5022644;28;20029;-89
2022/10/15 04:49:50;;;;;;;50.53;39.17;;;;;;;12.13;100.00;100503.06;5004628;28;20108;-88
2022/10/15 04:52:16;;;;;;;50.30;38.80;;;;;;;12.19;100.00;100513.03;4978817;28;20040;-89
2022/10/15 04:54:41;;;;;;;48.67;38.70;;;;;;;12.20;100.00;100511.97;5031463;28;20045;-89
2022/10/15 04:57:06;;;;;;;47.40;38.70;;;;;;;12.27;100.00;100515.41;5030626;28;20474;-88
2022/10/15 04:59:32;;;;;;;46.57;37.37;;;;;;;12.30;100.00;100512.22;5030787;28;20113;-90
2022/10/15 05:01:57;;;;;;;46.37;36.07;;;;;;;12.33;100.00;100505.50;5031087;28;20174;-89
2022/10/15 05:04:23;;;;;;;44.87;36.07;;;;;;;12.29;100.00;100499.72;5030664;28;20041;-90
2022/10/15 05:06:48;;;;;;;44.63;34.93;;;;;;;12.25;100.00;100498.53;5031280;28;20127;-88
2022/10/15 05:09:14;;;;;;;43.47;34.70;;;;;;;12.26;100.00;100493.91;5029395;28;20044;-88
2022/10/15 05:11:39;;;;;;;44.73;35.83;;;;;;;12.27;100.00;100488.25;5030447;28;20135;-87
2022/10/15 05:14:05;;;;;;;43.53;35.27;;;;;;;12.43;100.00;100515.81;5030273;28;20060;-88
2022/10/15 05:16:30;;;;;;;44.27;34.10;;;;;;;12.31;100.00;100494.06;5005170;28;20143;-89
2022/10/15 05:18:58;;;;;;;43.90;35.23;;;;;;;12.32;100.00;100495.69;5029550;28;20091;-87
2022/10/15 05:21:24;;;;;;;46.63;35.43;;;;;;;12.35;100.00;100503.41;5031207;28;20033;-86
2022/10/15 05:23:50;;;;;;;41.23;33.03;;;;;;;12.31;100.00;100499.50;5030580;28;20033;-88
2022/10/15 05:26:19;;;;;;;39.37;31.50;;;;;;;12.39;100.00;100501.03;5030383;28;20029;-88
2022/10/15 05:28:45;;;;;;;38.53;31.10;;;;;;;12.39;100.00;100501.03;5006040;28;20037;-87
2022/10/15 05:31:13;;;;;;;37.23;30.70;;;;;;;12.43;100.00;100504.94;5030462;28;20029;-87
2022/10/15 05:33:38;;;;;;;38.90;31.37;;;;;;;12.44;100.00;100506.59;5011500;28;20048;-88
2022/10/15 05:36:30;;;;;;;38.33;32.07;;;;;;;12.55;100.00;100521.28;5030655;28;20029;-88
2022/10/15 05:38:57;;;;;;;38.83;31.50;;;;;;;12.36;100.00;100498.78;5022666;28;20096;-88
2022/10/15 05:41:27;;;;;;;36.13;30.13;;;;;;;12.33;100.00;100489.19;5029753;28;20033;-86
2022/10/15 05:43:56;;;;;;;36.80;30.90;;;;;;;12.46;100.00;100509.94;5011562;28;20056;-87
2022/10/15 05:46:21;;;;;;;36.13;29.87;;;;;;;12.48;100.00;100495.06;5029897;28;20037;-88
2022/10/15 05:48:57;;;;;;;37.33;30.20;;;;;;;12.49;100.00;100506.72;5004416;28;20060;-87
2022/10/15 05:51:24;;;;;;;34.83;28.07;;;;;;;12.49;100.00;100504.00;5031284;28;20060;-87
2022/10/15 05:53:56;;;;;;;33.93;27.87;;;;;;;12.43;100.00;100497.63;5028957;28;20535;-87
2022/10/15 05:56:23;;;;;;;32.83;27.27;;;;;;;12.42;100.00;100492.44;5010737;28;20436;-87
2022/10/15 05:58:49;;;;;;;31.87;27.03;;;;;;;12.42;100.00;100487.81;5029834;28;20426;-86
2022/10/15 06:01:15;;;;;;;32.90;27.43;;;;;;;12.43;100.00;100494.06;5029541;28;20033;-87
2022/10/15 06:03:41;;;;;;;34.53;27.67;;;;;;;12.36;100.00;100491.44;5030319;28;20037;-88
2022/10/15 06:06:18;;;;;;;34.90;28.03;;;;;;;12.37;100.00;100490.41;5041146;28;20167;-87
2022/10/15 06:08:43;;;;;;;32.60;27.03;;;;;;;12.41;100.00;100493.47;5034126;28;20029;-87
2022/10/15 06:11:09;;;;;;;32.57;27.10;;;;;;;12.50;100.00;100511.13;5042209;28;20033;-85
2022/10/15 06:13:34;;;;;;;32.70;27.10;;;;;;;12.38;100.00;100496.69;5032843;28;20370;-86
2022/10/15 06:16:02;;;;;;;30.97;26.53;;;;;;;12.41;100.00;100491.59;5023905;28;20041;-88
2022/10/15 06:18:28;;;;;;;31.43;25.53;;;;;;;12.47;100.00;100500.69;5044389;28;22500;-87
2022/10/15 06:20:53;;;;;;;30.93;25.70;;;;;;;12.43;100.00;100499.50;5023107;28;20083;-87
2022/10/15 06:23:20;;;;;;;33.87;27.73;;;;;;;12.41;100.00;100485.34;5043863;28;20546;-86
2022/10/15 06:25:45;;;;;;;33.33;26.80;;;;;;;12.48;100.00;100502.34;5030573;28;20037;-87
2022/10/15 06:28:11;;;;;;;35.10;27.87;;;;;;;12.43;100.00;100494.06;5028826;28;20047;-87
2022/10/15 06:30:36;;;;;;;33.27;27.97;;;;;;;12.46;100.00;100499.06;5027571;28;20057;-87
2022/10/15 06:33:02;;;;;;;33.23;27.80;;;;;;;12.47;100.00;100497.97;5029472;28;20045;-87
2022/10/15 06:35:32;;;;;;;33.27;27.60;;;;;;;12.45;100.00;100497.38;5029533;28;20025;-87
2022/10/15 06:37:59;;;;;;;33.00;27.83;;;;;;;12.49;100.00;100504.00;5029645;28;20163;-86
2022/10/15 06:40:25;;;;;;;34.10;28.73;;;;;;;12.53;100.00;100509.81;5029392;28;20452;-86
2022/10/15 06:42:50;;;;;;;35.33;29.30;;;;;;;12.44;100.00;100484.84;5020885;28;20063;-87
2022/10/15 06:45:15;;;;;;;35.93;28.70;;;;;;;12.51;100.00;100499.16;5029742;28;20045;-87
2022/10/15 06:47:41;;;;;;;36.43;29.73;;;;;;;12.59;100.00;100493.41;5029445;28;20108;-87
2022/10/15 06:50:07;;;;;;;36.93;31.60;;;;;;;12.54;100.00;100489.72;5028731;28;20045;-88
2022/10/15 06:52:32;;;;;;;39.33;32.77;;;;;;;12.50;100.00;100494.81;5029399;28;20432;-87
2022/10/15 06:54:58;;;;;;;38.40;32.20;;;;;;;12.66;100.00;100510.44;5029386;28;20798;-87
2022/10/15 06:57:24;;;;;;;38.80;31.97;;;;;;;12.54;100.00;100496.00;5020668;28;20037;-87
2022/10/15 06:59:50;;;;;;;36.50;30.30;;;;;;;12.58;100.00;100497.19;5028683;28;20069;-85
2022/10/15 07:02:18;;;;;;;37.93;31.67;;;;;;;12.55;100.00;100494.94;5029376;28;20120;-87
2022/10/15 07:04:44;;;;;;;35.43;30.07;;;;;;;12.55;100.00;100503.09;5029409;28;20043;-87
2022/10/15 07:07:09;;;;;;;34.47;29.80;;;;;;;12.63;100.00;100507.34;5028118;28;20075;-87
2022/10/15 07:09:35;;;;;;;35.47;29.50;;;;;;;12.63;100.00;100508.19;5027682;28;20120;-87
2022/10/15 07:12:00;;;;;;;36.37;29.13;;;;;;;12.71;100.00;100519.78;5028985;28;20043;-87
2022/10/15 07:14:26;;;;;;;32.50;28.87;;;;;;;12.57;100.00;100495.53;5029014;28;20385;-87
2022/10/15 07:16:51;;;;;;;34.30;28.40;;;;;;;12.65;100.00;100500.63;4989164;28;20481;-87
2022/10/15 07:19:17;;;;;;;33.83;28.67;;;;;;;12.73;100.00;100493.16;5029124;28;20032;-88
2022/10/15 07:21:42;;;;;;;35.33;29.27;;;;;;;12.77;100.00;100497.91;5029449;28;20040;-87
2022/10/15 07:24:07;;;;;;;33.20;27.90;;;;;;;12.89;100.00;100507.97;5027205;28;20465;-88
2022/10/15 07:26:33;;;;;;;32.53;27.47;;;;;;;12.87;100.00;100501.94;5029336;28;20037;-87
2022/10/15 07:28:59;;;;;;;31.57;27.50;;;;;;;12.88;100.00;100501.72;5029131;28;20037;-88
2022/10/15 07:31:25;;;;;;;30.77;25.77;;;;;;;12.94;100.00;100506.19;5029728;28;20036;-88
2022/10/15 07:33:50;;;;;;;30.70;26.67;;;;;;;12.96;100.00;100482.31;5032148;28;20058;-87
2022/10/15 07:36:16;;;;;;;30.83;26.17;;;;;;;13.13;100.00;100484.31;5031338;28;20044;-87
2022/10/15 07:38:41;;;;;;;28.77;24.27;;;;;;;13.27;100.00;100483.03;5032646;28;20033;-87
2022/10/15 07:41:09;;;;;;;28.83;25.13;;;;;;;13.44;100.00;100483.13;5032490;28;20067;-88
2022/10/15 07:43:35;;;;;;;29.63;25.07;;;;;;;13.69;100.00;100473.81;5031935;28;20091;-87
2022/10/15 07:46:02;;;;;;;27.10;22.83;;;;;;;13.82;100.00;100479.00;5031955;28;20033;-87
2022/10/15 07:48:27;;;;;;;28.07;23.07;;;;;;;13.77;100.00;100459.00;5033470;28;20077;-88
2022/10/15 07:50:57;;;;;;;27.27;22.47;;;;;;;13.88;100.00;100476.38;5006607;28;20029;-87
2022/10/15 07:53:23;;;;;;;28.60;23.73;;;;;;;14.09;100.00;100494.75;5006707;28;20136;-87
2022/10/15 07:55:48;;;;;;;29.90;24.70;;;;;;;14.04;100.00;100485.69;5039159;28;20027;-88
2022/10/15 07:58:14;;;;;;;27.53;22.80;;;;;;;14.14;100.00;100481.25;5036981;28;20342;-91
2022/10/15 08:00:39;;;;;;;26.47;22.03;;;;;;;14.17;100.00;100497.09;5015771;28;20025;-85
2022/10/15 08:03:04;;;;;;;26.33;21.00;;;;;;;14.23;100.00;100470.75;5045026;28;20029;-86
2022/10/15 08:05:30;;;;;;;26.33;21.00;;;;;;;14.40;100.00;100461.78;5056474;28;20448;-86
2022/10/15 08:07:55;;;;;;;24.90;19.67;;;;;;;14.64;100.00;100473.38;5055006;28;20202;-86
2022/10/15 08:10:21;;;;;;;24.10;18.93;;;;;;;14.43;100.00;100464.00;5055849;28;20032;-86
2022/10/15 08:12:46;;;;;;;24.17;18.37;;;;;;;14.26;100.00;100462.09;5042882;28;20033;-86
2022/10/15 08:15:11;;;;;;;25.33;18.87;;;;;;;14.26;100.00;100456.63;5036282;28;20079;-86
2022/10/15 08:17:37;;;;;;;22.70;17.07;;;;;;;14.07;100.00;100457.94;5035105;28;20025;-86
2022/10/15 08:20:03;;;;;;;22.27;17.93;;;;;;;14.04;100.00;100453.00;5019332;28;20092;-86
2022/10/15 08:22:28;;;;;;;21.90;17.40;;;;;;;14.11;100.00;100464.53;5035913;28;20159;-87
2022/10/15 08:24:54;;;;;;;23.17;18.23;;;;;;;14.10;100.00;100457.44;5027556;28;20378;-86
2022/10/15 08:27:20;;;;;;;20.17;15.70;;;;;;;14.14;100.00;100458.59;5035943;28;20040;-86
2022/10/15 08:29:45;;;;;;;20.97;16.83;;;;;;;14.09;100.00;100459.34;5042157;28;20037;-86
2022/10/15 08:32:11;;;;;;;21.53;15.83;;;;;;;14.15;100.00;100460.25;5014423;28;20041;-87
2022/10/15 08:34:37;;;;;;;20.57;15.80;;;;;;;14.11;100.00;100440.03;5043634;28;20047;-86
2022/10/15 08:37:03;;;;;;;22.33;16.00;;;;;;;14.21;100.00;100453.84;5035342;28;20030;-85
2022/10/15 08:39:28;;;;;;;19.13;14.97;;;;;;;14.31;100.00;100454.00;5035986;28;20029;-86
2022/10/15 08:41:57;;;;;;;19.13;14.43;;;;;;;14.25;100.00;100448.72;5017815;28;20067;-85
2022/10/15 08:44:30;;;;;;;19.60;14.63;;;;;;;14.34;100.00;100455.41;5034985;28;20497;-87
2022/10/15 08:47:29;;;;;;;19.67;14.10;;;;;;;14.28;100.00;100443.59;5049114;28;20532;-87
2022/10/15 08:49:57;;;;;;;17.13;13.13;;;;;;;14.16;100.00;100438.22;4991798;28;20473;-86
2022/10/15 08:52:45;;;;;;;16.87;12.47;;;;;;;14.19;100.00;100431.44;5017384;28;20021;-87
2022/10/15 08:55:13;;;;;;;18.60;13.00;;;;;;;14.18;100.00;100432.50;5027379;28;20032;-86
2022/10/15 08:57:57;;;;;;;18.27;13.27;;;;;;;14.39;100.00;100455.50;5054584;28;20017;-86
2022/10/15 09:00:29;;;;;;;17.23;12.93;;;;;;;14.22;100.00;100422.78;5053573;28;20056;-86
2022/10/15 09:03:07;;;;;;;18.23;12.23;;;;;;;14.28;100.00;100432.72;5054016;28;20097;-86
2022/10/15 09:05:41;;;;;;;16.23;12.03;;;;;;;14.40;100.00;100446.25;5047787;28;20029;-85
2022/10/15 09:08:32;;;;;;;19.15;13.82;;;;;;;14.33;100.00;100421.91;5032205;28;20494;-87
2022/10/15 09:11:10;;;;;;;16.93;13.00;;;;;;;14.27;100.00;100411.97;4993672;28;20083;-88
2022/10/15 09:13:39;;;;;;;16.40;12.37;;;;;;;14.23;100.00;100407.28;5049471;28;20036;-88
2022/10/15 09:16:17;;;;;;;17.30;13.10;;;;;;;14.26;100.00;100404.03;5046907;28;20017;-90
2022/10/15 09:18:46;;;;;;;16.10;12.70;;;;;;;14.29;100.00;100411.72;5016239;28;20029;-89
2022/10/15 09:21:12;;;;;;;16.57;12.70;;;;;;;14.26;100.00;100402.13;5043556;28;20025;-90
2022/10/15 09:23:37;;;;;;;17.93;13.40;;;;;;;14.36;100.00;100417.84;5047982;28;20051;-93
2022/10/15 09:26:19;;;;;;;15.87;11.80;;;;;;;14.39;100.00;100413.78;5035822;28;20036;-90
2022/10/15 09:28:52;;;;;;;14.47;10.80;;;;;;;14.25;100.00;100400.50;5045718;28;20025;-91
2022/10/15 09:31:23;;;;;;;17.87;12.53;;;;;;;14.19;100.00;100396.03;5053810;28;20021;-93
2022/10/15 09:34:00;;;;;;;17.77;12.63;;;;;;;14.19;100.00;100396.03;5027533;28;20017;-88
2022/10/15 09:36:43;;;;;;;15.90;12.13;;;;;;;14.31;100.00;100404.94;5054358;28;20021;-93
2022/10/15 09:39:36;;;;;;;16.73;11.80;;;;;;;14.29;100.00;100415.28;5055025;28;20516;-90
2022/10/15 09:42:04;;;;;;;17.10;11.27;;;;;;;14.22;100.00;100408.34;5053671;28;20044;-92
2022/10/15 09:44:36;;;;;;;15.70;11.70;;;;;;;14.01;100.00;100384.28;5039944;28;20036;-90
2022/10/15 09:47:14;;;;;;;14.20;10.50;;;;;;;13.97;100.00;100394.03;5051939;28;20013;-89
2022/10/15 09:49:39;;;;;;;16.80;11.60;;;;;;;13.96;100.00;100392.38;5044267;28;20044;-94
2022/10/15 09:52:13;;;;;;;15.67;11.40;;;;;;;13.98;100.00;100382.06;5034297;28;20045;-90
2022/10/15 09:54:52;;;;;;;16.98;11.88;;;;;;;14.09;100.00;100402.13;5051930;28;20029;-91
2022/10/15 09:57:20;;;;;;;17.20;11.60;;;;;;;13.96;100.00;100384.19;5047956;28;20075;-93
2022/10/15 09:59:53;;;;;;;15.60;11.10;;;;;;;13.92;100.00;100385.75;5046453;28;20031;-86
2022/10/15 10:02:22;;;;;;;15.52;10.73;;;;;;;13.83;100.00;100373.59;5039616;28;20033;-86
2022/10/15 10:04:47;;;;;;;15.40;10.83;;;;;;;13.83;100.00;100366.28;5036875;28;20445;-86
2022/10/15 10:07:35;;;;;;;15.57;10.73;;;;;;;13.87;100.00;100372.06;5028870;28;20052;-88
2022/10/15 10:10:20;;;;;;;14.10;10.23;;;;;;;13.76;100.00;100359.34;5042029;28;20025;-89
2022/10/15 10:12:46;;;;;;;16.57;10.60;;;;;;;13.78;100.00;100357.22;5043958;28;20029;-88
2022/10/15 10:15:20;;;;;;;16.37;10.33;;;;;;;13.97;100.00;100387.75;5048777;28;20075;-88
2022/10/15 10:17:54;;;;;;;15.30;10.13;;;;;;;13.90;100.00;100379.75;5047052;28;20076;-89
2022/10/15 10:20:22;;;;;;;13.37;9.60;;;;;;;13.85;100.00;100364.13;5040304;28;20056;-90
2022/10/15 10:22:51;;;;;;;13.77;8.73;;;;;;;13.82;100.00;100361.09;5027473;28;20373;-88
2022/10/15 10:25:26;;;;;;;14.20;9.20;;;;;;;13.94;100.00;100391.81;5038166;28;20067;-88
2022/10/15 10:28:10;;;;;;;12.70;8.70;;;;;;;13.96;100.00;100380.66;5039840;28;20407;-89
2022/10/15 10:30:59;;;;;;;14.00;9.38;;;;;;;13.87;100.00;100354.91;5053050;28;20053;-89
2022/10/15 10:33:26;;;;;;;13.17;9.27;;;;;;;14.03;100.00;100375.88;5053425;28;20368;-88
2022/10/15 10:35:52;;;;;;;12.40;8.33;;;;;;;13.98;100.00;100376.63;5053622;28;20028;-89
2022/10/15 10:38:20;;;;;;;12.90;8.90;;;;;;;14.03;100.00;100375.88;5034321;28;20373;-89
2022/10/15 10:40:51;;;;;;;12.73;9.23;;;;;;;13.99;100.00;100367.38;5016724;28;20025;-89
2022/10/15 10:43:16;;;;;;;14.67;8.63;;;;;;;14.15;100.00;100383.97;5035417;28;20028;-89
2022/10/15 10:46:14;;;;;;;14.37;9.13;;;;;;;14.09;100.00;100363.16;5046667;28;20457;-90
2022/10/15 10:48:44;;;;;;;12.93;9.20;;;;;;;14.21;100.00;100372.09;5039789;28;20128;-89
2022/10/15 10:51:19;;;;;;;13.43;9.40;;;;;;;14.20;100.00;100365.00;5016754;28;20045;-90
2022/10/15 10:53:50;;;;;;;13.37;9.17;;;;;;;14.40;100.00;100399.94;5016868;28;20024;-89
2022/10/15 10:56:21;;;;;;;7.77;6.83;;;;;;;14.34;100.00;100381.84;5032593;28;20025;-90
2022/10/15 10:58:51;;;;;;;9.40;7.07;;;;;;;14.49;100.00;100381.25;5045056;28;20087;-89
2022/10/15 11:01:16;;;;;;;7.90;4.77;;;;;;;14.58;100.00;100377.03;5053324;28;20027;-90
2022/10/15 11:03:44;;;;;;;5.87;4.80;;;;;;;14.50;100.00;100353.72;5045081;28;20104;-89
2022/10/15 11:06:41;;;;;;;6.70;4.30;;;;;;;14.71;100.00;100372.31;5036752;28;20029;-90
2022/10/15 11:09:36;;;;;;;5.40;3.90;;;;;;;14.77;100.00;100358.50;5051142;28;20364;-89
2022/10/15 11:12:21;;;;;;;4.32;3.50;;;;;;;14.79;100.00;100369.16;5037032;28;20037;-90